Terminal Aerodrome Forecast
Issued by NWS

Current Version | Previous Version | Text Only | Print | Product List | Glossary On
Versions: 1 2 3 4 5 6 7 8 9 10 11 12 13 14 15 16 17 18 19 20 21 22 23
000
FTUS45 KGGW 270500
TAFOLF
TAF
KOLF 270529Z 2706/2806 VRB04KT P6SM BKN090
     FM271200 00000KT P6SM VCSH BKN120
     FM271800 VRB06KT 6SM -SHRA BKN090
     FM280000 VRB05KT P6SM -TSRA BKN080CB=

USA.gov is the U.S. government's official web portal to all federal, state and local government web resources and services.